sensor_id;sensor_type;location;lat;lon;timestamp;temperature;humidity
19665;DHT22;9980;51.020;7.772;2022-11-27T00:01:15;8.10;99.90
19665;DHT22;9980;51.020;7.772;2022-11-27T00:03:42;8.10;99.90
19665;DHT22;9980;51.020;7.772;2022-11-27T00:06:14;8.10;99.90
19665;DHT22;9980;51.020;7.772;2022-11-27T00:08:43;8.10;99.90
19665;DHT22;9980;51.020;7.772;2022-11-27T00:11:15;8.10;99.90
19665;DHT22;9980;51.020;7.772;2022-11-27T00:13:47;8.10;99.90
19665;DHT22;9980;51.020;7.772;2022-11-27T00:16:14;8.10;99.90
19665;DHT22;9980;51.020;7.772;2022-11-27T00:18:41;8.10;99.90
19665;DHT22;9980;51.020;7.772;2022-11-27T00:21:11;8.10;99.90
19665;DHT22;9980;51.020;7.772;2022-11-27T00:23:40;8.10;99.90
19665;DHT22;9980;51.020;7.772;2022-11-27T00:26:07;8.10;99.90
19665;DHT22;9980;51.020;7.772;2022-11-27T00:28:34;8.00;99.90
19665;DHT22;9980;51.020;7.772;2022-11-27T00:31:03;8.00;99.90
19665;DHT22;9980;51.020;7.772;2022-11-27T00:33:32;8.00;99.90
19665;DHT22;9980;51.020;7.772;2022-11-27T00:36:06;8.00;99.90
19665;DHT22;9980;51.020;7.772;2022-11-27T00:38:33;8.00;99.90
19665;DHT22;9980;51.020;7.772;2022-11-27T00:41:06;8.00;99.90
19665;DHT22;9980;51.020;7.772;2022-11-27T00:43:36;8.00;99.90
19665;DHT22;9980;51.020;7.772;2022-11-27T00:46:11;8.00;99.90
19665;DHT22;9980;51.020;7.772;2022-11-27T00:48:41;8.00;99.90
19665;DHT22;9980;51.020;7.772;2022-11-27T00:51:10;8.00;99.90
19665;DHT22;9980;51.020;7.772;2022-11-27T00:53:39;8.00;99.90
19665;DHT22;9980;51.020;7.772;2022-11-27T00:56:06;8.00;99.90
19665;DHT22;9980;51.020;7.772;2022-11-27T00:58:33;7.90;99.90
19665;DHT22;9980;51.020;7.772;2022-11-27T01:01:03;7.90;99.90
19665;DHT22;9980;51.020;7.772;2022-11-27T01:03:31;7.90;99.90
19665;DHT22;9980;51.020;7.772;2022-11-27T01:06:05;7.90;99.90
19665;DHT22;9980;51.020;7.772;2022-11-27T01:08:32;7.90;99.90
19665;DHT22;9980;51.020;7.772;2022-11-27T01:10:59;7.90;99.90
19665;DHT22;9980;51.020;7.772;2022-11-27T01:13:32;7.90;99.90
19665;DHT22;9980;51.020;7.772;2022-11-27T01:16:06;7.90;99.90
19665;DHT22;9980;51.020;7.772;2022-11-27T01:18:44;7.90;99.90
19665;DHT22;9980;51.020;7.772;2022-11-27T01:21:12;7.90;99.90
19665;DHT22;9980;51.020;7.772;2022-11-27T01:23:40;7.80;99.90
19665;DHT22;9980;51.020;7.772;2022-11-27T01:26:08;7.80;99.90
19665;DHT22;9980;51.020;7.772;2022-11-27T01:28:42;7.80;99.90
19665;DHT22;9980;51.020;7.772;2022-11-27T01:31:14;7.80;99.90
19665;DHT22;9980;51.020;7.772;2022-11-27T01:33:46;7.80;99.90
19665;DHT22;9980;51.020;7.772;2022-11-27T01:36:14;7.80;99.90
19665;DHT22;9980;51.020;7.772;2022-11-27T01:38:41;7.70;99.90
19665;DHT22;9980;51.020;7.772;2022-11-27T01:41:16;7.70;99.90
19665;DHT22;9980;51.020;7.772;2022-11-27T01:43:52;7.70;99.90
19665;DHT22;9980;51.020;7.772;2022-11-27T01:46:41;7.70;99.90
19665;DHT22;9980;51.020;7.772;2022-11-27T01:51:51;7.60;99.90
19665;DHT22;9980;51.020;7.772;2022-11-27T01:54:26;7.60;99.90
19665;DHT22;9980;51.020;7.772;2022-11-27T01:56:59;7.50;99.90
19665;DHT22;9980;51.020;7.772;2022-11-27T01:59:29;7.50;99.90
19665;DHT22;9980;51.020;7.772;2022-11-27T02:01:56;7.50;99.90
19665;DHT22;9980;51.020;7.772;2022-11-27T02:04:22;7.50;99.90
19665;DHT22;9980;51.020;7.772;2022-11-27T02:06:48;7.40;99.90
19665;DHT22;9980;51.020;7.772;2022-11-27T02:09:15;7.40;99.90
19665;DHT22;9980;51.020;7.772;2022-11-27T02:14:35;7.30;99.90
19665;DHT22;9980;51.020;7.772;2022-11-27T02:17:25;7.30;99.90
19665;DHT22;9980;51.020;7.772;2022-11-27T02:29:02;7.30;99.90
19665;DHT22;9980;51.020;7.772;2022-11-27T02:40:33;7.10;99.90
19665;DHT22;9980;51.020;7.772;2022-11-27T02:45:55;7.10;99.90
19665;DHT22;9980;51.020;7.772;2022-11-27T02:48:32;7.10;99.90
19665;DHT22;9980;51.020;7.772;2022-11-27T02:51:02;7.00;99.90
19665;DHT22;9980;51.020;7.772;2022-11-27T02:53:36;7.00;99.90
19665;DHT22;9980;51.020;7.772;2022-11-27T02:56:07;7.00;99.90
19665;DHT22;9980;51.020;7.772;2022-11-27T02:58:38;7.00;99.90
19665;DHT22;9980;51.020;7.772;2022-11-27T03:01:06;7.00;99.90
19665;DHT22;9980;51.020;7.772;2022-11-27T03:03:44;6.90;99.90
19665;DHT22;9980;51.020;7.772;2022-11-27T03:06:19;6.90;99.90
19665;DHT22;9980;51.020;7.772;2022-11-27T03:09:03;6.90;99.90
19665;DHT22;9980;51.020;7.772;2022-11-27T03:11:32;6.90;99.90
19665;DHT22;9980;51.020;7.772;2022-11-27T03:14:05;6.80;99.90
19665;DHT22;9980;51.020;7.772;2022-11-27T03:22:32;6.90;99.90
19665;DHT22;9980;51.020;7.772;2022-11-27T03:24:59;6.80;99.90
19665;DHT22;9980;51.020;7.772;2022-11-27T03:27:30;6.80;99.90
19665;DHT22;9980;51.020;7.772;2022-11-27T03:30:01;6.80;99.90
19665;DHT22;9980;51.020;7.772;2022-11-27T03:32:32;6.80;99.90
19665;DHT22;9980;51.020;7.772;2022-11-27T03:34:59;6.80;99.90
19665;DHT22;9980;51.020;7.772;2022-11-27T03:37:26;6.70;99.90
19665;DHT22;9980;51.020;7.772;2022-11-27T03:39:53;6.70;99.90
19665;DHT22;9980;51.020;7.772;2022-11-27T03:42:33;6.70;99.90
19665;DHT22;9980;51.020;7.772;2022-11-27T03:51:28;6.70;99.90
19665;DHT22;9980;51.020;7.772;2022-11-27T03:57:11;6.60;99.90
19665;DHT22;9980;51.020;7.772;2022-11-27T03:59:45;6.60;99.90
19665;DHT22;9980;51.020;7.772;2022-11-27T04:02:14;6.60;99.90
19665;DHT22;9980;51.020;7.772;2022-11-27T04:04:42;6.60;99.90
19665;DHT22;9980;51.020;7.772;2022-11-27T04:07:15;6.60;99.90
19665;DHT22;9980;51.020;7.772;2022-11-27T04:09:42;6.60;99.90
19665;DHT22;9980;51.020;7.772;2022-11-27T04:12:08;6.50;99.90
19665;DHT22;9980;51.020;7.772;2022-11-27T04:14:34;6.50;99.90
19665;DHT22;9980;51.020;7.772;2022-11-27T04:17:00;6.50;99.90
19665;DHT22;9980;51.020;7.772;2022-11-27T04:19:27;6.50;99.90
19665;DHT22;9980;51.020;7.772;2022-11-27T04:21:53;6.50;99.90
19665;DHT22;9980;51.020;7.772;2022-11-27T04:24:19;6.50;99.90
19665;DHT22;9980;51.020;7.772;2022-11-27T04:26:45;6.50;99.90
19665;DHT22;9980;51.020;7.772;2022-11-27T04:29:11;6.40;99.90
19665;DHT22;9980;51.020;7.772;2022-11-27T04:31:38;6.50;99.90
19665;DHT22;9980;51.020;7.772;2022-11-27T04:34:04;6.40;99.90
19665;DHT22;9980;51.020;7.772;2022-11-27T04:36:30;6.40;99.90
19665;DHT22;9980;51.020;7.772;2022-11-27T04:39:04;6.40;99.90
19665;DHT22;9980;51.020;7.772;2022-11-27T04:41:30;6.40;99.90
19665;DHT22;9980;51.020;7.772;2022-11-27T04:43:56;6.40;99.90
19665;DHT22;9980;51.020;7.772;2022-11-27T04:46:23;6.40;99.90
19665;DHT22;9980;51.020;7.772;2022-11-27T04:48:49;6.40;99.90
19665;DHT22;9980;51.020;7.772;2022-11-27T04:51:15;6.40;99.90
19665;DHT22;9980;51.020;7.772;2022-11-27T04:53:41;6.40;99.90
19665;DHT22;9980;51.020;7.772;2022-11-27T04:56:08;6.40;99.90
19665;DHT22;9980;51.020;7.772;2022-11-27T04:58:34;6.40;99.90
19665;DHT22;9980;51.020;7.772;2022-11-27T05:01:00;6.40;99.90
19665;DHT22;9980;51.020;7.772;2022-11-27T05:03:26;6.40;99.90
19665;DHT22;9980;51.020;7.772;2022-11-27T05:05:54;6.40;99.90
19665;DHT22;9980;51.020;7.772;2022-11-27T05:08:22;6.40;99.90
19665;DHT22;9980;51.020;7.772;2022-11-27T05:11:03;6.50;99.90
19665;DHT22;9980;51.020;7.772;2022-11-27T05:13:36;6.50;99.90
19665;DHT22;9980;51.020;7.772;2022-11-27T05:16:02;6.50;99.90
19665;DHT22;9980;51.020;7.772;2022-11-27T05:18:29;6.50;99.90
19665;DHT22;9980;51.020;7.772;2022-11-27T05:21:00;6.50;99.90
19665;DHT22;9980;51.020;7.772;2022-11-27T05:23:29;6.50;99.90
19665;DHT22;9980;51.020;7.772;2022-11-27T05:25:56;6.50;99.90
19665;DHT22;9980;51.020;7.772;2022-11-27T05:28:23;6.50;99.90
19665;DHT22;9980;51.020;7.772;2022-11-27T05:30:52;6.50;99.90
19665;DHT22;9980;51.020;7.772;2022-11-27T05:33:19;6.60;99.90
19665;DHT22;9980;51.020;7.772;2022-11-27T05:35:45;6.60;99.90
19665;DHT22;9980;51.020;7.772;2022-11-27T05:38:12;6.60;99.90
19665;DHT22;9980;51.020;7.772;2022-11-27T05:40:38;6.60;99.90
19665;DHT22;9980;51.020;7.772;2022-11-27T05:43:05;6.60;99.90
19665;DHT22;9980;51.020;7.772;2022-11-27T05:45:31;6.60;99.90
19665;DHT22;9980;51.020;7.772;2022-11-27T05:47:57;6.60;99.90
19665;DHT22;9980;51.020;7.772;2022-11-27T05:50:23;6.60;99.90
19665;DHT22;9980;51.020;7.772;2022-11-27T05:52:50;6.60;99.90
19665;DHT22;9980;51.020;7.772;2022-11-27T05:55:16;6.60;99.90
19665;DHT22;9980;51.020;7.772;2022-11-27T05:57:42;6.60;99.90
19665;DHT22;9980;51.020;7.772;2022-11-27T06:00:09;6.70;99.90
19665;DHT22;9980;51.020;7.772;2022-11-27T06:02:35;6.70;99.90
19665;DHT22;9980;51.020;7.772;2022-11-27T06:05:02;6.70;99.90
19665;DHT22;9980;51.020;7.772;2022-11-27T06:07:30;6.70;99.90
19665;DHT22;9980;51.020;7.772;2022-11-27T06:09:56;6.70;99.90
19665;DHT22;9980;51.020;7.772;2022-11-27T06:12:22;6.70;99.90
19665;DHT22;9980;51.020;7.772;2022-11-27T06:14:49;6.70;99.90
19665;DHT22;9980;51.020;7.772;2022-11-27T06:17:15;6.70;99.90
19665;DHT22;9980;51.020;7.772;2022-11-27T06:19:41;6.70;99.90
19665;DHT22;9980;51.020;7.772;2022-11-27T06:22:08;6.80;99.90
19665;DHT22;9980;51.020;7.772;2022-11-27T06:24:34;6.80;99.90
19665;DHT22;9980;51.020;7.772;2022-11-27T06:27:00;6.80;99.90
19665;DHT22;9980;51.020;7.772;2022-11-27T06:29:26;6.80;99.90
19665;DHT22;9980;51.020;7.772;2022-11-27T06:31:52;6.80;99.90
19665;DHT22;9980;51.020;7.772;2022-11-27T06:34:19;6.80;99.90
19665;DHT22;9980;51.020;7.772;2022-11-27T06:36:45;6.80;99.90
19665;DHT22;9980;51.020;7.772;2022-11-27T06:39:11;6.80;99.90
19665;DHT22;9980;51.020;7.772;2022-11-27T06:41:37;6.80;99.90
19665;DHT22;9980;51.020;7.772;2022-11-27T06:44:04;6.80;99.90
19665;DHT22;9980;51.020;7.772;2022-11-27T06:46:30;6.90;99.90
19665;DHT22;9980;51.020;7.772;2022-11-27T06:48:57;6.90;99.90
19665;DHT22;9980;51.020;7.772;2022-11-27T06:51:25;6.90;99.90
19665;DHT22;9980;51.020;7.772;2022-11-27T06:53:53;6.90;99.90
19665;DHT22;9980;51.020;7.772;2022-11-27T06:56:24;6.90;99.90
19665;DHT22;9980;51.020;7.772;2022-11-27T06:58:56;6.90;99.90
19665;DHT22;9980;51.020;7.772;2022-11-27T07:01:27;6.90;99.90
19665;DHT22;9980;51.020;7.772;2022-11-27T07:03:55;6.90;99.90
19665;DHT22;9980;51.020;7.772;2022-11-27T07:06:23;6.90;99.90
19665;DHT22;9980;51.020;7.772;2022-11-27T07:08:50;6.90;99.90
19665;DHT22;9980;51.020;7.772;2022-11-27T07:11:23;7.00;99.90
19665;DHT22;9980;51.020;7.772;2022-11-27T07:13:54;7.00;99.90
19665;DHT22;9980;51.020;7.772;2022-11-27T07:16:22;7.00;99.90
19665;DHT22;9980;51.020;7.772;2022-11-27T07:18:50;7.00;99.90
19665;DHT22;9980;51.020;7.772;2022-11-27T07:21:19;7.00;99.90
19665;DHT22;9980;51.020;7.772;2022-11-27T07:23:46;7.10;99.90
19665;DHT22;9980;51.020;7.772;2022-11-27T07:26:18;7.10;99.90
19665;DHT22;9980;51.020;7.772;2022-11-27T07:28:46;7.10;99.90
19665;DHT22;9980;51.020;7.772;2022-11-27T07:31:16;7.10;99.90
19665;DHT22;9980;51.020;7.772;2022-11-27T07:33:47;7.10;99.90
19665;DHT22;9980;51.020;7.772;2022-11-27T07:36:15;7.10;99.90
19665;DHT22;9980;51.020;7.772;2022-11-27T07:38:43;7.10;99.90
19665;DHT22;9980;51.020;7.772;2022-11-27T07:41:11;7.20;99.90
19665;DHT22;9980;51.020;7.772;2022-11-27T07:43:39;7.20;99.90
19665;DHT22;9980;51.020;7.772;2022-11-27T07:46:12;7.20;99.90
19665;DHT22;9980;51.020;7.772;2022-11-27T07:48:38;7.20;99.90
19665;DHT22;9980;51.020;7.772;2022-11-27T07:51:06;7.30;99.90
19665;DHT22;9980;51.020;7.772;2022-11-27T07:53:38;7.30;99.90
19665;DHT22;9980;51.020;7.772;2022-11-27T07:56:08;7.40;99.90
19665;DHT22;9980;51.020;7.772;2022-11-27T07:58:36;7.40;99.90
19665;DHT22;9980;51.020;7.772;2022-11-27T08:01:07;7.40;99.90
19665;DHT22;9980;51.020;7.772;2022-11-27T08:03:35;7.50;99.90
19665;DHT22;9980;51.020;7.772;2022-11-27T08:06:02;7.50;99.90
19665;DHT22;9980;51.020;7.772;2022-11-27T08:08:29;7.60;99.90
19665;DHT22;9980;51.020;7.772;2022-11-27T08:10:55;7.60;99.90
19665;DHT22;9980;51.020;7.772;2022-11-27T08:13:21;7.60;99.90
19665;DHT22;9980;51.020;7.772;2022-11-27T08:15:48;7.70;99.90
19665;DHT22;9980;51.020;7.772;2022-11-27T08:18:14;7.70;99.90
19665;DHT22;9980;51.020;7.772;2022-11-27T08:20:41;7.70;99.90
19665;DHT22;9980;51.020;7.772;2022-11-27T08:23:07;7.80;99.90
19665;DHT22;9980;51.020;7.772;2022-11-27T08:25:33;7.80;99.90
19665;DHT22;9980;51.020;7.772;2022-11-27T08:27:59;7.80;99.90
19665;DHT22;9980;51.020;7.772;2022-11-27T08:30:26;7.80;99.90
19665;DHT22;9980;51.020;7.772;2022-11-27T08:32:52;7.90;99.90
19665;DHT22;9980;51.020;7.772;2022-11-27T08:35:18;7.90;99.90
19665;DHT22;9980;51.020;7.772;2022-11-27T08:37:45;7.90;99.90
19665;DHT22;9980;51.020;7.772;2022-11-27T08:40:11;8.00;99.90
19665;DHT22;9980;51.020;7.772;2022-11-27T08:42:37;8.00;99.90
19665;DHT22;9980;51.020;7.772;2022-11-27T08:45:04;8.00;99.90
19665;DHT22;9980;51.020;7.772;2022-11-27T08:47:31;8.10;99.90
19665;DHT22;9980;51.020;7.772;2022-11-27T08:49:57;8.10;99.90
19665;DHT22;9980;51.020;7.772;2022-11-27T08:52:23;8.20;99.90
19665;DHT22;9980;51.020;7.772;2022-11-27T08:54:51;8.20;99.90
19665;DHT22;9980;51.020;7.772;2022-11-27T08:57:23;8.30;99.90
19665;DHT22;9980;51.020;7.772;2022-11-27T08:59:50;8.30;99.90
19665;DHT22;9980;51.020;7.772;2022-11-27T09:02:16;8.40;99.90
19665;DHT22;9980;51.020;7.772;2022-11-27T09:04:42;8.40;99.90
19665;DHT22;9980;51.020;7.772;2022-11-27T09:07:09;8.50;99.90
19665;DHT22;9980;51.020;7.772;2022-11-27T09:09:39;8.50;99.90
19665;DHT22;9980;51.020;7.772;2022-11-27T09:12:05;8.60;99.90
19665;DHT22;9980;51.020;7.772;2022-11-27T09:14:31;8.70;99.90
19665;DHT22;9980;51.020;7.772;2022-11-27T09:16:58;8.70;99.90
19665;DHT22;9980;51.020;7.772;2022-11-27T09:19:24;8.80;99.90
19665;DHT22;9980;51.020;7.772;2022-11-27T09:21:50;8.80;99.90
19665;DHT22;9980;51.020;7.772;2022-11-27T09:24:17;8.90;99.90
19665;DHT22;9980;51.020;7.772;2022-11-27T09:26:43;9.00;99.90
19665;DHT22;9980;51.020;7.772;2022-11-27T09:29:09;9.00;99.90
19665;DHT22;9980;51.020;7.772;2022-11-27T09:31:35;9.00;99.90
19665;DHT22;9980;51.020;7.772;2022-11-27T09:34:02;9.10;99.90
19665;DHT22;9980;51.020;7.772;2022-11-27T09:36:29;9.20;99.90
19665;DHT22;9980;51.020;7.772;2022-11-27T09:38:57;9.20;99.90
19665;DHT22;9980;51.020;7.772;2022-11-27T09:41:43;9.20;99.90
19665;DHT22;9980;51.020;7.772;2022-11-27T09:44:39;9.30;99.90
19665;DHT22;9980;51.020;7.772;2022-11-27T09:50:27;9.40;99.90
19665;DHT22;9980;51.020;7.772;2022-11-27T09:53:00;9.40;99.90
19665;DHT22;9980;51.020;7.772;2022-11-27T09:55:41;9.50;99.90
19665;DHT22;9980;51.020;7.772;2022-11-27T09:58:17;9.60;99.90
19665;DHT22;9980;51.020;7.772;2022-11-27T10:00:47;9.60;99.90
19665;DHT22;9980;51.020;7.772;2022-11-27T10:03:15;9.60;99.90
19665;DHT22;9980;51.020;7.772;2022-11-27T10:11:50;9.80;99.90
19665;DHT22;9980;51.020;7.772;2022-11-27T10:26:28;10.10;99.90
19665;DHT22;9980;51.020;7.772;2022-11-27T10:29:26;10.10;99.90
19665;DHT22;9980;51.020;7.772;2022-11-27T10:32:07;10.10;99.90
19665;DHT22;9980;51.020;7.772;2022-11-27T10:34:59;10.20;99.90
19665;DHT22;9980;51.020;7.772;2022-11-27T10:37:46;10.20;99.90
19665;DHT22;9980;51.020;7.772;2022-11-27T10:40:26;10.30;99.90
19665;DHT22;9980;51.020;7.772;2022-11-27T10:48:21;10.40;99.90
19665;DHT22;9980;51.020;7.772;2022-11-27T10:50:49;10.40;99.90
19665;DHT22;9980;51.020;7.772;2022-11-27T10:53:24;10.40;99.90
19665;DHT22;9980;51.020;7.772;2022-11-27T10:59:05;10.40;99.90
19665;DHT22;9980;51.020;7.772;2022-11-27T11:01:50;10.50;99.90
19665;DHT22;9980;51.020;7.772;2022-11-27T11:04:25;10.50;99.90
19665;DHT22;9980;51.020;7.772;2022-11-27T11:07:26;10.50;99.90
19665;DHT22;9980;51.020;7.772;2022-11-27T11:09:55;10.60;99.90
19665;DHT22;9980;51.020;7.772;2022-11-27T11:12:22;10.60;99.90
19665;DHT22;9980;51.020;7.772;2022-11-27T11:14:57;10.70;99.90
19665;DHT22;9980;51.020;7.772;2022-11-27T11:17:29;10.70;99.90
19665;DHT22;9980;51.020;7.772;2022-11-27T11:19:59;10.70;99.90
19665;DHT22;9980;51.020;7.772;2022-11-27T11:22:27;10.80;99.90
19665;DHT22;9980;51.020;7.772;2022-11-27T11:24:54;10.80;99.90
19665;DHT22;9980;51.020;7.772;2022-11-27T11:27:29;10.90;99.90
19665;DHT22;9980;51.020;7.772;2022-11-27T11:30:02;10.90;99.90
19665;DHT22;9980;51.020;7.772;2022-11-27T11:32:35;11.00;99.90
19665;DHT22;9980;51.020;7.772;2022-11-27T11:35:21;11.00;99.90
19665;DHT22;9980;51.020;7.772;2022-11-27T11:37:48;11.10;99.90
19665;DHT22;9980;51.020;7.772;2022-11-27T11:40:21;11.10;99.90
19665;DHT22;9980;51.020;7.772;2022-11-27T11:43:02;11.20;99.90
19665;DHT22;9980;51.020;7.772;2022-11-27T11:45:44;11.20;99.90
19665;DHT22;9980;51.020;7.772;2022-11-27T11:48:26;11.30;99.90
19665;DHT22;9980;51.020;7.772;2022-11-27T11:53:36;11.40;99.90
19665;DHT22;9980;51.020;7.772;2022-11-27T11:56:32;11.40;99.80
19665;DHT22;9980;51.020;7.772;2022-11-27T12:11:11;11.70;99.20
19665;DHT22;9980;51.020;7.772;2022-11-27T12:14:10;11.80;99.10
19665;DHT22;9980;51.020;7.772;2022-11-27T12:20:04;11.90;99.40
19665;DHT22;9980;51.020;7.772;2022-11-27T12:29:29;12.00;99.20
19665;DHT22;9980;51.020;7.772;2022-11-27T12:35:48;12.20;99.00
19665;DHT22;9980;51.020;7.772;2022-11-27T12:38:42;12.20;98.80
19665;DHT22;9980;51.020;7.772;2022-11-27T12:41:59;12.20;98.70
19665;DHT22;9980;51.020;7.772;2022-11-27T12:44:35;12.30;98.70
19665;DHT22;9980;51.020;7.772;2022-11-27T12:47:20;12.30;98.50
19665;DHT22;9980;51.020;7.772;2022-11-27T12:49:56;12.30;98.30
19665;DHT22;9980;51.020;7.772;2022-11-27T12:53:02;12.30;98.10
19665;DHT22;9980;51.020;7.772;2022-11-27T12:55:43;12.30;98.00
19665;DHT22;9980;51.020;7.772;2022-11-27T12:58:37;12.30;98.20
19665;DHT22;9980;51.020;7.772;2022-11-27T13:01:18;12.20;98.10
19665;DHT22;9980;51.020;7.772;2022-11-27T13:06:57;12.20;98.20
19665;DHT22;9980;51.020;7.772;2022-11-27T13:09:57;12.20;97.90
19665;DHT22;9980;51.020;7.772;2022-11-27T13:12:38;12.20;97.70
19665;DHT22;9980;51.020;7.772;2022-11-27T13:15:17;12.20;97.80
19665;DHT22;9980;51.020;7.772;2022-11-27T13:17:50;12.10;97.50
19665;DHT22;9980;51.020;7.772;2022-11-27T13:20:32;12.10;97.70
19665;DHT22;9980;51.020;7.772;2022-11-27T13:23:01;12.00;97.60
19665;DHT22;9980;51.020;7.772;2022-11-27T13:25:28;12.00;97.70
19665;DHT22;9980;51.020;7.772;2022-11-27T13:27:57;11.90;97.60
19665;DHT22;9980;51.020;7.772;2022-11-27T13:30:27;11.90;97.70
19665;DHT22;9980;51.020;7.772;2022-11-27T13:32:59;11.80;97.60
19665;DHT22;9980;51.020;7.772;2022-11-27T13:35:28;11.80;97.70
19665;DHT22;9980;51.020;7.772;2022-11-27T13:38:09;11.70;97.80
19665;DHT22;9980;51.020;7.772;2022-11-27T13:40:50;11.70;97.80
19665;DHT22;9980;51.020;7.772;2022-11-27T13:43:21;11.60;97.80
19665;DHT22;9980;51.020;7.772;2022-11-27T13:46:28;11.60;97.80
19665;DHT22;9980;51.020;7.772;2022-11-27T13:48:57;11.50;98.00
19665;DHT22;9980;51.020;7.772;2022-11-27T13:51:30;11.50;98.20
19665;DHT22;9980;51.020;7.772;2022-11-27T13:56:37;11.40;98.00
19665;DHT22;9980;51.020;7.772;2022-11-27T13:59:22;11.40;98.10
19665;DHT22;9980;51.020;7.772;2022-11-27T14:02:03;11.40;98.00
19665;DHT22;9980;51.020;7.772;2022-11-27T14:04:34;11.30;98.10
19665;DHT22;9980;51.020;7.772;2022-11-27T14:07:04;11.30;98.30
19665;DHT22;9980;51.020;7.772;2022-11-27T14:09:40;11.30;98.30
19665;DHT22;9980;51.020;7.772;2022-11-27T14:12:29;11.20;98.20
19665;DHT22;9980;51.020;7.772;2022-11-27T14:14:59;11.20;98.10
19665;DHT22;9980;51.020;7.772;2022-11-27T14:17:40;11.20;98.20
19665;DHT22;9980;51.020;7.772;2022-11-27T14:20:24;11.20;98.20
19665;DHT22;9980;51.020;7.772;2022-11-27T14:22:58;11.20;98.20
19665;DHT22;9980;51.020;7.772;2022-11-27T14:25:40;11.20;98.20
19665;DHT22;9980;51.020;7.772;2022-11-27T14:30:59;11.10;98.20
19665;DHT22;9980;51.020;7.772;2022-11-27T14:33:29;11.10;98.20
19665;DHT22;9980;51.020;7.772;2022-11-27T14:36:30;11.10;98.10
19665;DHT22;9980;51.020;7.772;2022-11-27T14:39:00;11.10;98.10
19665;DHT22;9980;51.020;7.772;2022-11-27T14:41:27;11.10;98.20
19665;DHT22;9980;51.020;7.772;2022-11-27T14:44:01;11.00;98.20
19665;DHT22;9980;51.020;7.772;2022-11-27T14:46:38;11.00;98.20
19665;DHT22;9980;51.020;7.772;2022-11-27T14:49:16;11.00;98.20
19665;DHT22;9980;51.020;7.772;2022-11-27T14:51:44;10.90;98.30
19665;DHT22;9980;51.020;7.772;2022-11-27T14:54:17;10.90;98.20
19665;DHT22;9980;51.020;7.772;2022-11-27T14:56:51;10.90;98.10
19665;DHT22;9980;51.020;7.772;2022-11-27T14:59:20;10.90;98.10
19665;DHT22;9980;51.020;7.772;2022-11-27T15:02:24;10.90;98.10
19665;DHT22;9980;51.020;7.772;2022-11-27T15:05:02;10.80;97.90
19665;DHT22;9980;51.020;7.772;2022-11-27T15:07:31;10.80;97.70
19665;DHT22;9980;51.020;7.772;2022-11-27T15:10:24;10.80;97.80
19665;DHT22;9980;51.020;7.772;2022-11-27T15:12:53;10.80;97.80
19665;DHT22;9980;51.020;7.772;2022-11-27T15:15:23;10.80;97.80
19665;DHT22;9980;51.020;7.772;2022-11-27T15:17:56;10.80;97.80
19665;DHT22;9980;51.020;7.772;2022-11-27T15:23:02;10.70;97.60
19665;DHT22;9980;51.020;7.772;2022-11-27T15:25:39;10.70;97.70
19665;DHT22;9980;51.020;7.772;2022-11-27T15:30:49;10.60;97.70
19665;DHT22;9980;51.020;7.772;2022-11-27T15:33:29;10.60;97.60
19665;DHT22;9980;51.020;7.772;2022-11-27T15:36:20;10.60;97.60
19665;DHT22;9980;51.020;7.772;2022-11-27T15:38:46;10.60;97.60
19665;DHT22;9980;51.020;7.772;2022-11-27T15:41:26;10.50;97.80
19665;DHT22;9980;51.020;7.772;2022-11-27T15:43:55;10.50;97.50
19665;DHT22;9980;51.020;7.772;2022-11-27T15:46:33;10.50;97.70
19665;DHT22;9980;51.020;7.772;2022-11-27T15:48:59;10.40;97.70
19665;DHT22;9980;51.020;7.772;2022-11-27T15:51:26;10.50;97.90
19665;DHT22;9980;51.020;7.772;2022-11-27T15:53:52;10.40;97.90
19665;DHT22;9980;51.020;7.772;2022-11-27T15:56:18;10.40;97.80
19665;DHT22;9980;51.020;7.772;2022-11-27T15:58:44;10.40;98.00
19665;DHT22;9980;51.020;7.772;2022-11-27T16:01:10;10.40;98.00
19665;DHT22;9980;51.020;7.772;2022-11-27T16:03:37;10.40;98.40
19665;DHT22;9980;51.020;7.772;2022-11-27T16:06:06;10.40;98.10
19665;DHT22;9980;51.020;7.772;2022-11-27T16:08:33;10.40;98.00
19665;DHT22;9980;51.020;7.772;2022-11-27T16:11:01;10.40;98.10
19665;DHT22;9980;51.020;7.772;2022-11-27T16:13:30;10.30;98.10
19665;DHT22;9980;51.020;7.772;2022-11-27T16:16:04;10.30;98.30
19665;DHT22;9980;51.020;7.772;2022-11-27T16:18:33;10.30;98.10
19665;DHT22;9980;51.020;7.772;2022-11-27T16:21:05;10.30;98.30
19665;DHT22;9980;51.020;7.772;2022-11-27T16:23:34;10.30;98.30
19665;DHT22;9980;51.020;7.772;2022-11-27T16:26:01;10.30;98.40
19665;DHT22;9980;51.020;7.772;2022-11-27T16:28:30;10.30;98.50
19665;DHT22;9980;51.020;7.772;2022-11-27T16:30:59;10.20;98.40
19665;DHT22;9980;51.020;7.772;2022-11-27T16:33:28;10.20;98.40
19665;DHT22;9980;51.020;7.772;2022-11-27T16:35:55;10.20;98.50
19665;DHT22;9980;51.020;7.772;2022-11-27T16:38:28;10.20;98.40
19665;DHT22;9980;51.020;7.772;2022-11-27T16:40:59;10.20;98.40
19665;DHT22;9980;51.020;7.772;2022-11-27T16:43:27;10.20;98.40
19665;DHT22;9980;51.020;7.772;2022-11-27T16:46:10;10.20;98.60
19665;DHT22;9980;51.020;7.772;2022-11-27T16:48:40;10.10;98.50
19665;DHT22;9980;51.020;7.772;2022-11-27T16:51:10;10.10;98.50
19665;DHT22;9980;51.020;7.772;2022-11-27T16:53:43;10.10;98.60
19665;DHT22;9980;51.020;7.772;2022-11-27T16:56:14;10.10;98.60
19665;DHT22;9980;51.020;7.772;2022-11-27T16:58:44;10.00;98.60
19665;DHT22;9980;51.020;7.772;2022-11-27T17:01:13;10.00;98.60
19665;DHT22;9980;51.020;7.772;2022-11-27T17:03:41;10.00;98.60
19665;DHT22;9980;51.020;7.772;2022-11-27T17:06:10;10.00;98.80
19665;DHT22;9980;51.020;7.772;2022-11-27T17:08:38;10.00;98.80
19665;DHT22;9980;51.020;7.772;2022-11-27T17:11:10;10.00;98.80
19665;DHT22;9980;51.020;7.772;2022-11-27T17:13:37;10.00;98.70
19665;DHT22;9980;51.020;7.772;2022-11-27T17:16:04;10.00;98.80
19665;DHT22;9980;51.020;7.772;2022-11-27T17:18:32;9.90;98.80
19665;DHT22;9980;51.020;7.772;2022-11-27T17:21:03;9.90;99.20
19665;DHT22;9980;51.020;7.772;2022-11-27T17:23:34;9.90;98.80
19665;DHT22;9980;51.020;7.772;2022-11-27T17:26:08;9.90;98.90
19665;DHT22;9980;51.020;7.772;2022-11-27T17:28:36;9.90;98.90
19665;DHT22;9980;51.020;7.772;2022-11-27T17:31:12;9.90;99.00
19665;DHT22;9980;51.020;7.772;2022-11-27T17:33:41;9.90;98.90
19665;DHT22;9980;51.020;7.772;2022-11-27T17:36:08;9.80;99.00
19665;DHT22;9980;51.020;7.772;2022-11-27T17:38:35;9.80;98.90
19665;DHT22;9980;51.020;7.772;2022-11-27T17:41:07;9.80;98.90
19665;DHT22;9980;51.020;7.772;2022-11-27T17:43:36;9.80;99.00
19665;DHT22;9980;51.020;7.772;2022-11-27T17:46:08;9.80;99.10
19665;DHT22;9980;51.020;7.772;2022-11-27T17:48:37;9.80;99.00
19665;DHT22;9980;51.020;7.772;2022-11-27T17:51:05;9.80;99.20
19665;DHT22;9980;51.020;7.772;2022-11-27T17:53:32;9.80;99.10
19665;DHT22;9980;51.020;7.772;2022-11-27T17:56:04;9.80;99.10
19665;DHT22;9980;51.020;7.772;2022-11-27T17:58:31;9.80;99.00
19665;DHT22;9980;51.020;7.772;2022-11-27T18:00:59;9.80;99.00
19665;DHT22;9980;51.020;7.772;2022-11-27T18:03:27;9.80;99.10
19665;DHT22;9980;51.020;7.772;2022-11-27T18:05:54;9.80;99.20
19665;DHT22;9980;51.020;7.772;2022-11-27T18:08:22;9.80;99.20
19665;DHT22;9980;51.020;7.772;2022-11-27T18:10:48;9.80;99.10
19665;DHT22;9980;51.020;7.772;2022-11-27T18:13:14;9.80;99.10
19665;DHT22;9980;51.020;7.772;2022-11-27T18:15:41;9.80;99.10
19665;DHT22;9980;51.020;7.772;2022-11-27T18:18:09;9.80;99.00